Time;durP1;ratioP1;P1;durP2;ratioP2;P2;SDS_P1;SDS_P2;PMS_P1;PMS_P2;Temp;Humidity;BMP_temperature;BMP_pressure;BME280_temperature;BME280_humidity;BME280_pressure;Samples;Min_cycle;Max_cycle;Signal;HPM_P1;HPM_P2
2022/03/09 00:01:13;;;;;;;1.50;1.30;;;5.20;71.80;;;;;;5049176;28;20520;-70
2022/03/09 00:03:40;;;;;;;1.50;1.30;;;5.20;71.80;;;;;;5049459;28;20463;-70
2022/03/09 00:06:08;;;;;;;1.50;1.30;;;5.20;71.70;;;;;;5044967;28;20493;-71
2022/03/09 00:08:34;;;;;;;1.50;1.30;;;5.20;71.70;;;;;;5046066;28;20475;-70
2022/03/09 00:11:01;;;;;;;1.70;1.60;;;5.20;71.60;;;;;;5047964;28;20493;-71
2022/03/09 00:13:28;;;;;;;1.50;1.40;;;5.20;71.60;;;;;;5050510;28;20489;-70
2022/03/09 00:15:55;;;;;;;1.50;1.30;;;5.20;71.60;;;;;;5048518;28;20493;-70
2022/03/09 00:18:21;;;;;;;1.57;1.47;;;5.20;71.60;;;;;;5046964;28;20856;-70
2022/03/09 00:20:48;;;;;;;1.50;1.30;;;5.20;71.50;;;;;;5046355;28;20469;-70
2022/03/09 00:23:16;;;;;;;1.50;1.40;;;5.20;71.50;;;;;;5047928;28;20520;-70
2022/03/09 00:25:43;;;;;;;1.50;1.30;;;5.20;71.50;;;;;;5045616;28;20512;-70
2022/03/09 00:28:10;;;;;;;1.50;1.30;;;5.20;71.50;;;;;;5050746;28;20947;-70
2022/03/09 00:30:37;;;;;;;1.50;1.40;;;5.30;71.50;;;;;;5047064;28;20466;-70
2022/03/09 00:33:03;;;;;;;1.50;1.30;;;5.30;71.40;;;;;;5051414;28;20702;-70
2022/03/09 00:35:30;;;;;;;1.50;1.30;;;5.40;71.30;;;;;;5047339;28;20469;-71
2022/03/09 00:37:57;;;;;;;1.50;1.40;;;5.40;71.10;;;;;;5048921;28;20497;-70
2022/03/09 00:40:25;;;;;;;1.50;1.30;;;5.50;71.00;;;;;;5046115;28;20822;-71
2022/03/09 00:42:52;;;;;;;1.50;1.30;;;5.50;71.00;;;;;;5049795;28;20474;-70
2022/03/09 00:45:18;;;;;;;1.50;1.30;;;5.50;71.00;;;;;;5047974;28;20473;-70
2022/03/09 00:47:45;;;;;;;1.50;1.30;;;5.50;70.90;;;;;;5045832;28;21012;-70
2022/03/09 00:50:12;;;;;;;1.50;1.20;;;5.50;71.00;;;;;;5047172;28;20462;-70
2022/03/09 00:52:39;;;;;;;1.50;1.30;;;5.50;71.00;;;;;;5043280;28;20463;-71
2022/03/09 00:55:07;;;;;;;1.50;1.30;;;5.50;71.10;;;;;;5047541;28;20489;-71
2022/03/09 00:57:35;;;;;;;1.57;1.47;;;5.50;71.20;;;;;;5046250;28;20501;-70
2022/03/09 01:00:02;;;;;;;1.50;1.30;;;5.50;71.20;;;;;;5040395;28;20454;-70
2022/03/09 01:02:29;;;;;;;1.50;1.30;;;5.50;71.20;;;;;;5039862;28;20474;-70
2022/03/09 01:04:55;;;;;;;3.93;3.73;;;5.50;71.10;;;;;;5046933;28;20462;-70
2022/03/09 01:07:22;;;;;;;1.50;1.30;;;5.60;71.30;;;;;;5043450;28;20490;-70
2022/03/09 01:09:49;;;;;;;1.50;1.40;;;5.60;71.30;;;;;;5046123;28;20473;-70
2022/03/09 01:12:15;;;;;;;1.50;1.30;;;5.60;71.40;;;;;;5049435;28;20462;-70
2022/03/09 01:14:44;;;;;;;1.50;1.40;;;5.60;71.50;;;;;;5049436;28;20466;-70
2022/03/09 01:17:10;;;;;;;2.83;2.63;;;5.50;71.70;;;;;;5052003;28;20486;-70
2022/03/09 01:19:37;;;;;;;1.50;1.40;;;5.50;71.70;;;;;;5050156;28;20477;-70
2022/03/09 01:22:04;;;;;;;1.50;1.30;;;5.50;71.70;;;;;;5055442;28;20469;-70
2022/03/09 01:24:31;;;;;;;1.47;1.20;;;5.50;71.90;;;;;;5051452;28;20476;-70
2022/03/09 01:26:57;;;;;;;1.43;1.23;;;5.50;71.70;;;;;;5055643;28;20489;-70
2022/03/09 01:29:24;;;;;;;1.50;1.30;;;5.50;71.50;;;;;;5050223;28;21095;-71
2022/03/09 01:31:52;;;;;;;1.50;1.30;;;5.50;71.40;;;;;;5054427;28;20469;-70
2022/03/09 01:34:19;;;;;;;1.50;1.37;;;5.40;71.40;;;;;;5050035;28;20660;-70
2022/03/09 01:36:46;;;;;;;1.50;1.40;;;5.40;71.20;;;;;;5049344;28;20490;-70
2022/03/09 01:39:12;;;;;;;1.50;1.30;;;5.40;71.00;;;;;;5050575;28;21100;-70
2022/03/09 01:41:39;;;;;;;1.50;1.30;;;5.40;71.10;;;;;;5052607;28;21083;-70
2022/03/09 01:44:11;;;;;;;1.47;1.30;;;5.40;71.10;;;;;;5050454;28;20469;-71
2022/03/09 01:46:38;;;;;;;1.50;1.40;;;5.40;71.20;;;;;;5049353;28;20501;-71
2022/03/09 01:49:07;;;;;;;1.50;1.30;;;5.40;71.20;;;;;;5050079;28;20466;-70
2022/03/09 01:51:39;;;;;;;1.60;1.50;;;5.30;71.20;;;;;;5048446;28;20469;-70
2022/03/09 01:54:06;;;;;;;1.50;1.40;;;5.20;71.30;;;;;;5050781;28;20465;-70
2022/03/09 01:56:34;;;;;;;1.50;1.30;;;5.20;71.50;;;;;;5050668;28;20489;-70
2022/03/09 01:59:02;;;;;;;1.50;1.30;;;5.20;71.50;;;;;;5050362;28;20489;-70
2022/03/09 02:01:29;;;;;;;1.50;1.30;;;5.10;71.60;;;;;;5049309;28;20490;-70
2022/03/09 02:03:57;;;;;;;1.90;1.80;;;5.10;71.70;;;;;;5049025;28;20454;-70
2022/03/09 02:06:25;;;;;;;1.50;1.30;;;5.00;71.90;;;;;;5049888;28;20482;-70
2022/03/09 02:11:37;;;;;;;1.50;1.40;;;4.90;72.10;;;;;;5047541;28;20477;-70
2022/03/09 02:14:05;;;;;;;3.17;2.93;;;4.90;72.20;;;;;;5049805;28;20470;-70
2022/03/09 02:16:33;;;;;;;1.50;1.30;;;4.80;72.50;;;;;;5055322;28;20489;-70
2022/03/09 02:19:01;;;;;;;1.50;1.30;;;4.80;72.70;;;;;;5049648;28;20459;-70
2022/03/09 02:21:31;;;;;;;1.50;1.30;;;4.80;72.70;;;;;;5042155;28;20610;-70
2022/03/09 02:24:00;;;;;;;1.50;1.30;;;4.70;72.60;;;;;;5049229;28;20474;-70
2022/03/09 02:26:26;;;;;;;1.50;1.30;;;4.70;72.70;;;;;;5052554;28;20485;-70
2022/03/09 02:28:53;;;;;;;1.73;1.63;;;4.60;72.80;;;;;;5050282;28;20458;-70
2022/03/09 02:31:20;;;;;;;1.50;1.40;;;4.60;72.90;;;;;;5050921;28;20461;-70
2022/03/09 02:33:46;;;;;;;1.50;1.40;;;4.60;72.80;;;;;;5037056;28;20454;-70
2022/03/09 02:36:13;;;;;;;1.53;1.40;;;4.60;72.90;;;;;;5041211;28;20481;-71
2022/03/09 02:38:40;;;;;;;1.50;1.40;;;4.50;72.90;;;;;;5046958;28;20474;-70
2022/03/09 02:41:08;;;;;;;1.50;1.33;;;4.50;72.90;;;;;;5048284;28;20910;-71
2022/03/09 02:43:35;;;;;;;1.50;1.30;;;4.50;73.00;;;;;;5047585;28;20465;-70
2022/03/09 02:46:01;;;;;;;1.50;1.40;;;4.50;73.20;;;;;;5048116;28;21183;-70
2022/03/09 02:48:28;;;;;;;1.50;1.40;;;4.50;73.10;;;;;;5047324;28;20462;-70
2022/03/09 02:50:55;;;;;;;1.50;1.40;;;4.50;73.00;;;;;;5046834;28;20462;-70
2022/03/09 02:53:23;;;;;;;1.50;1.30;;;4.50;72.90;;;;;;5045998;28;20458;-70
2022/03/09 02:55:50;;;;;;;1.60;1.50;;;4.50;73.00;;;;;;5048253;28;21062;-71
2022/03/09 02:58:18;;;;;;;1.50;1.40;;;4.40;72.90;;;;;;5047459;28;21034;-70
2022/03/09 03:00:44;;;;;;;1.50;1.40;;;4.50;73.10;;;;;;5046981;28;20471;-70
2022/03/09 03:03:11;;;;;;;1.50;1.30;;;4.50;73.10;;;;;;5048494;28;20466;-71
2022/03/09 03:05:38;;;;;;;1.50;1.40;;;4.50;73.10;;;;;;5047574;28;20462;-70
2022/03/09 03:08:05;;;;;;;1.63;1.53;;;4.50;73.10;;;;;;5050048;28;20454;-70
2022/03/09 03:10:31;;;;;;;1.57;1.40;;;4.50;73.30;;;;;;5046376;28;20470;-70
2022/03/09 03:12:59;;;;;;;1.53;1.43;;;4.40;73.50;;;;;;5048662;28;20459;-71
2022/03/09 03:15:27;;;;;;;1.50;1.30;;;4.40;73.90;;;;;;5049110;28;20468;-70
2022/03/09 03:17:54;;;;;;;1.50;1.30;;;4.40;74.30;;;;;;5048970;28;20873;-70
2022/03/09 03:20:20;;;;;;;1.50;1.40;;;4.40;74.20;;;;;;5047745;28;20458;-71
2022/03/09 03:22:47;;;;;;;2.37;2.17;;;4.30;74.70;;;;;;5049062;28;20989;-70
2022/03/09 03:25:14;;;;;;;1.60;1.40;;;4.30;74.60;;;;;;5048816;28;20496;-70
2022/03/09 03:27:41;;;;;;;1.50;1.40;;;4.30;74.90;;;;;;5048759;28;20475;-71
2022/03/09 03:30:08;;;;;;;1.50;1.30;;;4.20;75.30;;;;;;5047228;28;20963;-70
2022/03/09 03:32:37;;;;;;;1.50;1.30;;;4.20;75.10;;;;;;5055558;28;20768;-70
2022/03/09 03:35:05;;;;;;;1.60;1.50;;;4.20;75.20;;;;;;5046249;28;20469;-70
2022/03/09 03:37:32;;;;;;;1.50;1.30;;;4.20;75.00;;;;;;5047286;28;20517;-70
2022/03/09 03:39:58;;;;;;;1.60;1.40;;;4.10;74.90;;;;;;5046825;28;20470;-70
2022/03/09 03:42:25;;;;;;;1.50;1.40;;;4.10;74.70;;;;;;5047673;28;20462;-70
2022/03/09 03:44:52;;;;;;;1.50;1.30;;;4.10;74.60;;;;;;5048272;28;20970;-70
2022/03/09 03:47:19;;;;;;;1.50;1.30;;;4.10;74.40;;;;;;5035949;28;20486;-70
2022/03/09 03:49:47;;;;;;;1.50;1.33;;;4.10;74.40;;;;;;5046636;28;20465;-70
2022/03/09 03:52:14;;;;;;;1.50;1.40;;;4.00;74.20;;;;;;5051992;28;20465;-70
2022/03/09 03:54:41;;;;;;;1.50;1.40;;;4.00;74.00;;;;;;5047961;28;20466;-70
2022/03/09 03:57:08;;;;;;;1.50;1.40;;;4.00;74.00;;;;;;5046158;28;20858;-70
2022/03/09 03:59:35;;;;;;;1.67;1.57;;;3.90;74.10;;;;;;5047095;28;20498;-70
2022/03/09 04:02:01;;;;;;;1.50;1.40;;;3.90;74.40;;;;;;5050676;28;20464;-70
2022/03/09 04:04:29;;;;;;;1.50;1.30;;;3.90;74.50;;;;;;5046971;28;20466;-71
2022/03/09 04:06:57;;;;;;;1.60;1.50;;;3.90;74.60;;;;;;5046781;28;20494;-72
2022/03/09 04:09:24;;;;;;;1.53;1.40;;;3.90;74.80;;;;;;5070725;23;20854;-72
2022/03/09 04:11:51;;;;;;;1.50;1.40;;;3.80;75.10;;;;;;5067353;28;20453;-72
2022/03/09 04:14:22;;;;;;;1.50;1.40;;;3.80;75.10;;;;;;5067850;28;20457;-72
2022/03/09 04:16:49;;;;;;;1.50;1.30;;;3.80;75.10;;;;;;5067412;28;20489;-72
2022/03/09 04:19:15;;;;;;;1.50;1.40;;;3.70;75.20;;;;;;5082679;28;20488;-72
2022/03/09 04:21:42;;;;;;;1.50;1.40;;;3.70;75.20;;;;;;5086791;28;20708;-72
2022/03/09 04:24:10;;;;;;;1.50;1.30;;;3.70;75.30;;;;;;5086874;28;20464;-72
2022/03/09 04:26:37;;;;;;;1.60;1.50;;;3.70;75.30;;;;;;5086710;28;20468;-72
2022/03/09 04:29:04;;;;;;;1.50;1.33;;;3.70;75.10;;;;;;5085168;28;20480;-72
2022/03/09 04:31:31;;;;;;;1.50;1.40;;;3.60;74.80;;;;;;5085150;28;20468;-72
2022/03/09 04:33:58;;;;;;;1.50;1.30;;;3.60;74.50;;;;;;5080658;28;20771;-72
2022/03/09 04:36:25;;;;;;;1.50;1.30;;;3.60;74.30;;;;;;5071306;28;20472;-69
2022/03/09 04:38:52;;;;;;;1.50;1.40;;;3.60;74.20;;;;;;5082900;28;20663;-72
2022/03/09 04:41:20;;;;;;;1.50;1.40;;;3.60;74.20;;;;;;5069724;28;20495;-73
2022/03/09 04:43:47;;;;;;;1.80;1.70;;;3.60;74.10;;;;;;5086213;28;20456;-71
2022/03/09 04:46:14;;;;;;;1.50;1.40;;;3.60;74.10;;;;;;5081922;28;20480;-73
2022/03/09 04:48:40;;;;;;;3.13;2.93;;;3.60;74.30;;;;;;5084170;28;20484;-71
2022/03/09 04:51:07;;;;;;;1.50;1.40;;;3.50;74.30;;;;;;5088257;28;20460;-71
2022/03/09 04:53:34;;;;;;;1.50;1.40;;;3.50;74.40;;;;;;5085650;28;20623;-71
2022/03/09 04:56:01;;;;;;;1.50;1.40;;;3.50;74.40;;;;;;5078838;28;20464;-72
2022/03/09 04:58:29;;;;;;;3.70;3.40;;;3.50;74.30;;;;;;5085895;28;20480;-72
2022/03/09 05:00:56;;;;;;;1.57;1.40;;;3.60;74.30;;;;;;5086726;28;20458;-71
2022/03/09 05:03:22;;;;;;;1.50;1.30;;;3.60;74.20;;;;;;5086708;28;21339;-72
2022/03/09 05:05:49;;;;;;;1.50;1.40;;;3.50;74.20;;;;;;5085033;28;20461;-72
2022/03/09 05:08:16;;;;;;;1.50;1.40;;;3.50;74.10;;;;;;5084024;28;21052;-73
2022/03/09 05:10:43;;;;;;;1.50;1.40;;;3.50;74.10;;;;;;5089442;28;20475;-73
2022/03/09 05:13:09;;;;;;;1.50;1.40;;;3.60;73.90;;;;;;5091345;28;20515;-73
2022/03/09 05:15:38;;;;;;;1.80;1.70;;;3.60;73.90;;;;;;5091001;28;20480;-72
2022/03/09 05:18:04;;;;;;;1.50;1.40;;;3.60;73.90;;;;;;5058589;28;20481;-73
2022/03/09 05:20:31;;;;;;;1.50;1.40;;;3.60;73.80;;;;;;5088891;28;20533;-71
2022/03/09 05:22:58;;;;;;;1.53;1.40;;;3.60;73.80;;;;;;5089850;28;20468;-71
2022/03/09 05:25:25;;;;;;;1.50;1.30;;;3.60;73.90;;;;;;5085622;28;20861;-72
2022/03/09 05:27:51;;;;;;;1.50;1.40;;;3.60;73.80;;;;;;5055365;28;20481;-72
2022/03/09 05:30:18;;;;;;;1.50;1.40;;;3.60;73.80;;;;;;5085658;28;20515;-72
2022/03/09 05:32:46;;;;;;;1.60;1.50;;;3.60;73.80;;;;;;5088492;28;20479;-72
2022/03/09 05:35:13;;;;;;;1.57;1.40;;;3.60;73.80;;;;;;5083103;28;20460;-73
2022/03/09 05:37:42;;;;;;;5.17;4.80;;;3.60;73.90;;;;;;5088720;28;20476;-73
2022/03/09 05:40:09;;;;;;;1.60;1.50;;;3.60;73.70;;;;;;5086627;28;20494;-72
2022/03/09 05:42:36;;;;;;;1.50;1.40;;;3.60;73.80;;;;;;5085501;28;20464;-73
2022/03/09 05:45:03;;;;;;;1.50;1.40;;;3.60;73.90;;;;;;5090562;28;21050;-72
2022/03/09 05:47:30;;;;;;;1.50;1.40;;;3.50;73.80;;;;;;5086160;28;20574;-73
2022/03/09 05:49:58;;;;;;;1.60;1.50;;;3.50;73.80;;;;;;5088244;28;20496;-73
2022/03/09 05:52:25;;;;;;;1.50;1.40;;;3.50;73.70;;;;;;5088801;28;20475;-73
2022/03/09 05:54:52;;;;;;;2.03;1.93;;;3.50;73.70;;;;;;5089067;28;20460;-72
2022/03/09 05:57:20;;;;;;;1.50;1.40;;;3.50;73.80;;;;;;5087884;28;20459;-71
2022/03/09 05:59:47;;;;;;;1.60;1.40;;;3.50;73.90;;;;;;5088185;28;20484;-73
2022/03/09 06:02:14;;;;;;;1.50;1.40;;;3.50;74.00;;;;;;5088494;28;20460;-71
2022/03/09 06:04:42;;;;;;;1.50;1.40;;;3.50;74.10;;;;;;5085815;28;20850;-73
2022/03/09 06:07:11;;;;;;;1.50;1.40;;;3.50;74.20;;;;;;5077985;28;20553;-72
2022/03/09 06:09:37;;;;;;;1.50;1.40;;;3.50;74.20;;;;;;5086509;28;20488;-72
2022/03/09 06:12:05;;;;;;;1.50;1.40;;;3.50;74.40;;;;;;5072086;28;20487;-73
2022/03/09 06:14:32;;;;;;;1.50;1.30;;;3.40;74.40;;;;;;5089163;28;20472;-73
2022/03/09 06:16:58;;;;;;;1.67;1.57;;;3.40;74.40;;;;;;5088109;28;20468;-70
2022/03/09 06:19:25;;;;;;;1.53;1.40;;;3.40;74.50;;;;;;5087439;28;21015;-71
2022/03/09 06:21:52;;;;;;;1.70;1.60;;;3.40;74.40;;;;;;5072852;28;21022;-71
2022/03/09 06:24:20;;;;;;;1.50;1.40;;;3.40;74.50;;;;;;5084445;28;20465;-73
2022/03/09 06:26:47;;;;;;;1.60;1.50;;;3.40;74.30;;;;;;5083791;28;20456;-74
2022/03/09 06:29:14;;;;;;;1.53;1.40;;;3.50;74.30;;;;;;5089049;28;20871;-74
2022/03/09 06:31:42;;;;;;;1.50;1.40;;;3.50;74.30;;;;;;5083320;28;20465;-72
2022/03/09 06:34:09;;;;;;;1.50;1.40;;;3.50;74.20;;;;;;5079683;28;20454;-71
2022/03/09 06:36:36;;;;;;;1.50;1.40;;;3.60;74.10;;;;;;5078364;28;20488;-72
2022/03/09 06:39:04;;;;;;;1.57;1.47;;;3.60;74.20;;;;;;5088796;28;21090;-71
2022/03/09 06:41:32;;;;;;;1.50;1.30;;;3.70;73.80;;;;;;5083929;28;20468;-70
2022/03/09 06:43:59;;;;;;;1.50;1.40;;;3.80;73.60;;;;;;5088378;28;20948;-72
2022/03/09 06:46:25;;;;;;;1.60;1.50;;;4.00;73.50;;;;;;5085459;28;20465;-71
2022/03/09 06:48:52;;;;;;;1.50;1.40;;;4.00;73.20;;;;;;5075012;28;20790;-72
2022/03/09 06:51:19;;;;;;;1.50;1.30;;;4.10;72.80;;;;;;5080731;28;20492;-72
2022/03/09 06:53:46;;;;;;;1.70;1.60;;;4.20;72.70;;;;;;5077264;28;20479;-69
2022/03/09 06:56:13;;;;;;;1.50;1.40;;;4.30;72.30;;;;;;5082948;28;20468;-70
2022/03/09 06:58:41;;;;;;;1.50;1.33;;;4.40;72.00;;;;;;5084706;28;20573;-69
2022/03/09 07:01:08;;;;;;;1.50;1.37;;;4.50;72.00;;;;;;5079732;28;20472;-72
2022/03/09 07:03:35;;;;;;;1.50;1.30;;;4.60;71.80;;;;;;5075700;28;20833;-73
2022/03/09 07:06:01;;;;;;;1.50;1.40;;;4.70;71.70;;;;;;5077368;28;20472;-72
2022/03/09 07:08:30;;;;;;;2.43;2.23;;;4.80;71.30;;;;;;5079568;28;20488;-73
2022/03/09 07:10:58;;;;;;;1.50;1.30;;;4.90;71.20;;;;;;5082985;28;20468;-71
2022/03/09 07:13:25;;;;;;;1.50;1.30;;;5.00;71.30;;;;;;5085381;28;20868;-72
2022/03/09 07:15:54;;;;;;;1.80;1.70;;;5.10;71.20;;;;;;5080606;28;20479;-72
2022/03/09 07:18:21;;;;;;;1.50;1.40;;;5.20;71.30;;;;;;5076905;28;20492;-72
2022/03/09 07:20:48;;;;;;;12.73;4.77;;;5.40;71.30;;;;;;5079612;28;20466;-72
2022/03/09 07:23:15;;;;;;;1.50;1.30;;;5.60;71.10;;;;;;5048527;28;20987;-72
2022/03/09 07:25:43;;;;;;;1.60;1.43;;;5.80;70.80;;;;;;5081779;28;20472;-74
2022/03/09 07:28:10;;;;;;;1.50;1.30;;;5.90;70.00;;;;;;5077762;28;21012;-72
2022/03/09 07:30:37;;;;;;;1.50;1.30;;;5.90;70.00;;;;;;5079311;28;20472;-72
2022/03/09 07:33:05;;;;;;;1.50;1.37;;;6.00;69.90;;;;;;5081431;28;20457;-72
2022/03/09 07:35:32;;;;;;;1.50;1.33;;;6.10;69.80;;;;;;5076556;28;20465;-72
2022/03/09 07:37:59;;;;;;;1.50;1.30;;;6.20;69.60;;;;;;5080641;28;20488;-69
2022/03/09 07:40:25;;;;;;;1.50;1.37;;;6.30;69.20;;;;;;5082887;28;20473;-73
2022/03/09 07:42:52;;;;;;;2.83;2.67;;;6.40;69.20;;;;;;5080558;28;20468;-72
2022/03/09 07:45:19;;;;;;;1.50;1.30;;;6.50;68.80;;;;;;5083750;28;20457;-73
2022/03/09 07:47:46;;;;;;;1.87;1.77;;;6.50;68.20;;;;;;5082915;28;20456;-71
2022/03/09 07:50:14;;;;;;;1.50;1.40;;;6.60;68.50;;;;;;5082528;28;20448;-72
2022/03/09 07:52:41;;;;;;;1.50;1.30;;;6.70;67.30;;;;;;5083052;28;20460;-73
2022/03/09 07:55:10;;;;;;;1.50;1.40;;;6.80;67.50;;;;;;5078645;28;20465;-72
2022/03/09 07:57:37;;;;;;;1.50;1.30;;;6.90;67.90;;;;;;5080769;28;20465;-72
2022/03/09 08:00:05;;;;;;;1.50;1.30;;;7.00;67.70;;;;;;5080637;28;20476;-72
2022/03/09 08:02:31;;;;;;;1.50;1.33;;;7.10;67.30;;;;;;5081519;28;20464;-71
2022/03/09 08:04:58;;;;;;;1.60;1.50;;;7.20;66.60;;;;;;5079214;28;20476;-72
2022/03/09 08:07:26;;;;;;;1.50;1.27;;;7.20;66.50;;;;;;5084465;28;20475;-71
2022/03/09 08:09:53;;;;;;;1.50;1.23;;;7.30;66.50;;;;;;5082562;28;20534;-71
2022/03/09 08:12:20;;;;;;;1.50;1.20;;;7.40;66.20;;;;;;5069795;28;20488;-72
2022/03/09 08:14:46;;;;;;;1.50;1.30;;;7.50;65.90;;;;;;5082616;28;20975;-72
2022/03/09 08:17:13;;;;;;;1.50;1.30;;;7.60;65.70;;;;;;5081026;28;20491;-72
2022/03/09 08:19:40;;;;;;;1.50;1.30;;;7.70;65.10;;;;;;5082848;28;20859;-72
2022/03/09 08:22:07;;;;;;;1.50;1.20;;;7.80;64.80;;;;;;5082713;28;20471;-70
2022/03/09 08:24:35;;;;;;;1.50;1.20;;;7.80;64.90;;;;;;5083294;28;20460;-73
2022/03/09 08:27:02;;;;;;;2.13;1.97;;;7.90;64.60;;;;;;5082938;28;20468;-72
2022/03/09 08:29:29;;;;;;;1.50;1.30;;;8.00;64.90;;;;;;5081320;28;20550;-72
2022/03/09 08:31:56;;;;;;;1.50;1.30;;;8.10;65.00;;;;;;5081832;28;20789;-72
2022/03/09 08:34:22;;;;;;;1.93;1.83;;;8.20;64.50;;;;;;5080247;28;20988;-70
2022/03/09 08:36:49;;;;;;;1.50;1.20;;;8.40;64.40;;;;;;5081272;28;20480;-72
2022/03/09 08:39:16;;;;;;;1.50;1.30;;;8.50;64.30;;;;;;5084635;28;20499;-73
2022/03/09 08:41:45;;;;;;;1.50;1.20;;;8.60;64.40;;;;;;5082729;28;20472;-72
2022/03/09 08:44:12;;;;;;;1.60;1.50;;;8.70;63.30;;;;;;5079404;28;20472;-71
2022/03/09 08:46:38;;;;;;;1.50;1.20;;;8.80;62.90;;;;;;5066458;28;20894;-73
2022/03/09 08:49:05;;;;;;;1.47;1.10;;;8.80;63.10;;;;;;5079724;28;20480;-71
2022/03/09 08:51:32;;;;;;;1.50;1.10;;;9.00;63.10;;;;;;5061216;28;21059;-72
2022/03/09 08:53:59;;;;;;;1.50;1.20;;;9.10;62.50;;;;;;5074685;28;20462;-72
2022/03/09 08:56:28;;;;;;;1.97;1.87;;;9.20;62.60;;;;;;5078830;28;20859;-72
2022/03/09 08:58:56;;;;;;;1.47;1.10;;;9.20;62.50;;;;;;5073717;28;20505;-72
2022/03/09 09:01:23;;;;;;;2.33;2.13;;;9.30;62.30;;;;;;5077509;28;20461;-72
2022/03/09 09:03:50;;;;;;;1.50;1.17;;;9.30;61.90;;;;;;5082148;28;20468;-72
2022/03/09 09:06:17;;;;;;;1.50;1.17;;;9.40;62.20;;;;;;5073431;28;20483;-72
2022/03/09 09:08:43;;;;;;;1.50;1.20;;;9.50;61.80;;;;;;5083092;28;20957;-72
2022/03/09 09:11:10;;;;;;;1.50;1.10;;;9.70;62.00;;;;;;5068945;28;20488;-72
2022/03/09 09:13:37;;;;;;;1.47;1.20;;;9.90;61.60;;;;;;5083170;28;20492;-73
2022/03/09 09:16:06;;;;;;;1.50;1.10;;;10.10;61.60;;;;;;5082744;28;20960;-73
2022/03/09 09:18:33;;;;;;;1.50;1.20;;;10.30;61.20;;;;;;5082174;28;20487;-72
2022/03/09 09:20:59;;;;;;;5.43;2.80;;;10.40;60.80;;;;;;5068574;28;20464;-72
2022/03/09 09:23:26;;;;;;;1.50;1.20;;;10.50;60.40;;;;;;5079226;28;20460;-72
2022/03/09 09:25:53;;;;;;;1.50;1.10;;;10.50;60.50;;;;;;5082309;28;20885;-72
2022/03/09 09:28:19;;;;;;;1.50;1.10;;;10.70;60.60;;;;;;5082638;28;20495;-72
2022/03/09 09:30:47;;;;;;;1.43;1.10;;;10.80;59.70;;;;;;5082106;28;20457;-72
2022/03/09 09:33:15;;;;;;;1.47;1.00;;;11.00;58.90;;;;;;5080725;28;20464;-72
2022/03/09 09:35:42;;;;;;;1.50;1.30;;;11.00;58.70;;;;;;5083305;28;20463;-72
2022/03/09 09:38:08;;;;;;;1.50;1.10;;;11.20;59.00;;;;;;5083191;28;20981;-72
2022/03/09 09:40:40;;;;;;;1.50;1.00;;;11.30;58.80;;;;;;5084694;28;20515;-72
2022/03/09 09:43:09;;;;;;;1.43;1.00;;;11.40;58.50;;;;;;5086364;28;20543;-72
2022/03/09 09:45:36;;;;;;;1.47;1.00;;;11.60;58.80;;;;;;5080538;28;20840;-72
2022/03/09 09:48:03;;;;;;;1.50;1.10;;;11.70;57.40;;;;;;5086700;28;20484;-72
2022/03/09 09:50:32;;;;;;;1.47;1.00;;;11.60;57.80;;;;;;5084892;28;20952;-73
2022/03/09 09:52:59;;;;;;;1.50;1.10;;;11.60;57.80;;;;;;5081660;28;20460;-73
2022/03/09 09:55:27;;;;;;;1.40;1.00;;;11.80;58.40;;;;;;5086065;28;20464;-71
2022/03/09 09:57:55;;;;;;;1.43;1.00;;;12.00;58.20;;;;;;5086279;28;20475;-71
2022/03/09 10:00:22;;;;;;;1.60;1.50;;;12.20;57.10;;;;;;5080147;28;20582;-72
2022/03/09 10:02:49;;;;;;;1.50;1.10;;;12.30;57.30;;;;;;5080078;28;20472;-71
2022/03/09 10:05:18;;;;;;;1.50;1.00;;;12.60;57.30;;;;;;5082610;28;20475;-71
2022/03/09 10:08:16;;;;;;;1.50;1.23;;;12.70;56.70;;;;;;5069615;28;20488;-72
2022/03/09 10:10:45;;;;;;;1.50;1.40;;;12.80;56.00;;;;;;5073001;28;20457;-73
2022/03/09 10:13:15;;;;;;;1.50;1.10;;;12.80;55.80;;;;;;5086271;28;20940;-73
2022/03/09 10:15:43;;;;;;;1.70;1.60;;;12.90;56.70;;;;;;5084952;28;20750;-71
2022/03/09 10:18:14;;;;;;;1.60;1.40;;;12.80;55.20;;;;;;5050445;28;20729;-72
2022/03/09 10:20:41;;;;;;;1.47;1.00;;;12.70;55.50;;;;;;5085507;28;20491;-73
2022/03/09 10:23:09;;;;;;;1.50;1.00;;;12.90;56.30;;;;;;5085396;28;20465;-70
2022/03/09 10:25:38;;;;;;;1.47;1.00;;;13.00;55.90;;;;;;5080740;28;20483;-70
2022/03/09 10:28:07;;;;;;;3.43;3.13;;;13.00;55.50;;;;;;5085307;28;20484;-71
2022/03/09 10:30:35;;;;;;;11.67;2.37;;;13.10;56.10;;;;;;5084662;28;20491;-70
2022/03/09 10:33:04;;;;;;;1.50;1.10;;;13.30;55.50;;;;;;5078709;28;20460;-70
2022/03/09 10:35:43;;;;;;;1.50;1.00;;;13.30;54.70;;;;;;5078126;28;20479;-70
2022/03/09 10:38:22;;;;;;;1.50;1.10;;;13.30;54.30;;;;;;5055584;28;20488;-71
2022/03/09 10:40:54;;;;;;;1.50;1.20;;;13.20;53.60;;;;;;5084719;28;20863;-70
2022/03/09 10:43:22;;;;;;;1.50;1.00;;;13.10;53.70;;;;;;5084451;28;20460;-70
2022/03/09 10:46:00;;;;;;;1.43;1.00;;;13.20;54.20;;;;;;5078460;28;20462;-70
2022/03/09 10:48:27;;;;;;;3.20;3.00;;;13.30;53.50;;;;;;5084275;28;20494;-70
2022/03/09 10:50:55;;;;;;;2.17;1.97;;;13.50;54.20;;;;;;5083250;28;20478;-70
2022/03/09 10:53:22;;;;;;;1.50;1.10;;;13.60;53.90;;;;;;5085850;28;20468;-71
2022/03/09 10:55:50;;;;;;;1.47;1.00;;;13.70;53.60;;;;;;5084061;28;20467;-71
2022/03/09 10:58:19;;;;;;;1.50;1.00;;;13.80;52.80;;;;;;5078463;28;20481;-71
2022/03/09 11:00:47;;;;;;;1.50;0.97;;;13.70;52.80;;;;;;5082633;28;20519;-70
2022/03/09 11:03:15;;;;;;;4.33;2.70;;;13.80;53.00;;;;;;5083812;28;20469;-71
2022/03/09 11:05:50;;;;;;;1.50;1.00;;;13.80;51.90;;;;;;5084454;28;20467;-71
2022/03/09 11:08:18;;;;;;;1.50;1.00;;;13.90;53.20;;;;;;5079457;28;20496;-76
2022/03/09 11:10:46;;;;;;;1.40;0.90;;;14.00;53.00;;;;;;5077622;28;20456;-72
2022/03/09 11:13:16;;;;;;;1.47;1.00;;;14.00;52.60;;;;;;5084663;28;21083;-71
2022/03/09 11:15:43;;;;;;;1.50;1.00;;;14.20;53.00;;;;;;5072625;28;20453;-70
2022/03/09 11:18:13;;;;;;;1.50;1.00;;;14.30;52.10;;;;;;5080988;28;20489;-70
2022/03/09 11:20:40;;;;;;;1.47;1.00;;;14.40;51.50;;;;;;5080271;28;20582;-71
2022/03/09 11:23:07;;;;;;;1.50;1.00;;;14.40;51.90;;;;;;5085976;28;20461;-71
2022/03/09 11:25:35;;;;;;;1.50;1.10;;;14.60;52.30;;;;;;5079252;28;20474;-71
2022/03/09 11:28:03;;;;;;;1.47;1.00;;;14.70;52.70;;;;;;5079569;28;20488;-70
2022/03/09 11:30:33;;;;;;;1.50;1.10;;;14.90;52.20;;;;;;5076294;28;20543;-76
2022/03/09 11:33:01;;;;;;;1.43;0.90;;;15.10;51.60;;;;;;5083549;28;20460;-72
2022/03/09 11:35:33;;;;;;;1.47;1.00;;;15.30;50.80;;;;;;5078056;28;20464;-72
2022/03/09 11:38:00;;;;;;;1.50;1.07;;;15.60;50.80;;;;;;5079262;28;20874;-76
2022/03/09 11:40:27;;;;;;;1.47;1.00;;;15.70;50.50;;;;;;5083932;28;20481;-72
2022/03/09 11:42:54;;;;;;;1.47;1.00;;;15.80;49.80;;;;;;5083731;28;20534;-74
2022/03/09 11:45:32;;;;;;;1.40;1.00;;;15.70;50.00;;;;;;5085020;28;20464;-77
2022/03/09 11:48:03;;;;;;;1.90;1.30;;;15.90;50.50;;;;;;5081229;28;20491;-77
2022/03/09 11:50:33;;;;;;;1.43;1.00;;;16.10;50.20;;;;;;5083589;28;20468;-76
2022/03/09 11:53:02;;;;;;;1.50;1.00;;;16.40;49.40;;;;;;5086366;28;20460;-73
2022/03/09 11:55:29;;;;;;;1.43;0.90;;;16.50;49.30;;;;;;5084132;28;20469;-76
2022/03/09 11:58:09;;;;;;;1.50;1.20;;;16.50;48.10;;;;;;5083431;28;20486;-72
2022/03/09 12:00:38;;;;;;;1.60;1.20;;;16.30;48.60;;;;;;5079092;28;20981;-72
2022/03/09 12:03:05;;;;;;;1.50;1.00;;;16.40;48.50;;;;;;5082565;28;20740;-73
2022/03/09 12:05:37;;;;;;;1.50;0.90;;;16.30;48.90;;;;;;5081217;28;20471;-73
2022/03/09 12:08:05;;;;;;;1.47;0.90;;;16.30;48.20;;;;;;5072967;28;20492;-72
2022/03/09 12:10:47;;;;;;;1.43;1.00;;;16.50;49.30;;;;;;5077185;28;20457;-72
2022/03/09 12:13:18;;;;;;;1.70;1.50;;;16.60;46.90;;;;;;5081825;28;20464;-71
2022/03/09 12:16:24;;;;;;;3.73;3.43;;;16.50;48.30;;;;;;5082779;28;20461;-71
2022/03/09 12:19:09;;;;;;;1.47;0.90;;;16.70;47.70;;;;;;5015087;28;20571;-73
2022/03/09 12:22:07;;;;;;;1.50;0.90;;;16.60;47.00;;;;;;5048009;28;20504;-73
2022/03/09 12:24:36;;;;;;;1.47;0.93;;;16.70;47.80;;;;;;5068485;28;20472;-70
2022/03/09 12:27:25;;;;;;;1.47;0.90;;;16.70;47.70;;;;;;5053130;28;21104;-70
2022/03/09 12:29:52;;;;;;;3.83;3.43;;;16.80;47.70;;;;;;5068898;28;20591;-70
2022/03/09 12:32:22;;;;;;;1.50;1.00;;;16.90;46.60;;;;;;5069111;28;20456;-70
2022/03/09 12:34:51;;;;;;;1.50;1.10;;;17.00;46.80;;;;;;5073520;28;20499;-72
2022/03/09 12:37:22;;;;;;;1.50;1.00;;;17.00;47.20;;;;;;5075266;28;20460;-70
2022/03/09 12:39:53;;;;;;;1.40;0.90;;;17.10;47.80;;;;;;5078072;28;21103;-70
2022/03/09 12:42:20;;;;;;;1.47;1.00;;;17.30;47.20;;;;;;5076140;28;20460;-70
2022/03/09 12:44:49;;;;;;;1.43;0.90;;;17.30;46.60;;;;;;5078589;28;20898;-71
2022/03/09 12:47:18;;;;;;;1.50;0.90;;;17.20;46.90;;;;;;5082116;28;20468;-70
2022/03/09 12:49:49;;;;;;;1.60;1.30;;;17.20;47.60;;;;;;5079948;28;20508;-71
2022/03/09 12:52:17;;;;;;;1.43;0.90;;;17.40;47.40;;;;;;5081415;28;20460;-73
2022/03/09 12:54:47;;;;;;;1.43;0.90;;;17.50;47.20;;;;;;5082692;28;20537;-73
2022/03/09 12:57:19;;;;;;;1.47;0.90;;;17.50;46.70;;;;;;5077503;28;20465;-72
2022/03/09 13:00:01;;;;;;;1.50;1.10;;;17.70;47.30;;;;;;5080698;28;20520;-73